Time;durP1;ratioP1;P1;durP2;ratioP2;P2;SDS_P1;SDS_P2;PMS_P1;PMS_P2;Temp;Humidity;BMP_temperature;BMP_pressure;BME280_temperature;BME280_humidity;BME280_pressure;Samples;Min_cycle;Max_cycle;Signal;HPM_P1;HPM_P2
2023/07/05 00:02:12;;;;;;;12.57;7.37;;;17.70;88.30;;;;;;5054281;28;20472;-49
2023/07/05 00:04:39;;;;;;;8.27;5.23;;;17.80;88.30;;;;;;5053691;28;20437;-49
2023/07/05 00:07:06;;;;;;;8.90;6.00;;;18.10;88.50;;;;;;5054662;28;20461;-49
2023/07/05 00:09:33;;;;;;;10.70;5.43;;;17.90;88.10;;;;;;5054007;28;20849;-49
2023/07/05 00:11:59;;;;;;;10.60;4.57;;;17.90;88.20;;;;;;5054814;28;20444;-48
2023/07/05 00:14:26;;;;;;;6.73;5.07;;;17.60;87.70;;;;;;5054559;28;20811;-49
2023/07/05 00:16:52;;;;;;;8.20;5.70;;;17.80;88.10;;;;;;5054235;28;20457;-48
2023/07/05 00:19:20;;;;;;;11.03;5.53;;;17.80;87.90;;;;;;5054060;28;20438;-49
2023/07/05 00:21:47;;;;;;;9.23;4.70;;;18.40;88.70;;;;;;5054599;28;20449;-46
2023/07/05 00:24:16;;;;;;;5.90;4.90;;;18.10;88.50;;;;;;5054161;28;20484;-47
2023/07/05 00:26:42;;;;;;;9.10;5.03;;;18.30;88.80;;;;;;5054107;28;20448;-47
2023/07/05 00:29:09;;;;;;;10.03;6.63;;;18.30;88.70;;;;;;5035540;28;20446;-46
2023/07/05 00:31:35;;;;;;;10.97;4.80;;;17.70;88.10;;;;;;5053396;28;20433;-47
2023/07/05 00:34:02;;;;;;;7.00;4.73;;;17.50;87.80;;;;;;5035258;28;20449;-48
2023/07/05 00:36:30;;;;;;;10.87;5.17;;;17.80;88.00;;;;;;5034969;28;20997;-48
2023/07/05 00:38:56;;;;;;;7.77;4.90;;;17.90;88.00;;;;;;5052517;28;20937;-48
2023/07/05 00:41:23;;;;;;;12.87;5.00;;;18.00;87.90;;;;;;5052769;28;20454;-47
2023/07/05 00:43:49;;;;;;;7.47;5.17;;;18.20;88.10;;;;;;5052844;28;20485;-47
2023/07/05 00:46:20;;;;;;;9.30;4.93;;;18.20;88.00;;;;;;5034836;28;20855;-48
2023/07/05 00:48:55;;;;;;;12.27;5.67;;;17.70;87.50;;;;;;5052540;28;20440;-48
2023/07/05 00:51:27;;;;;;;8.93;5.17;;;17.80;87.50;;;;;;5034802;28;20454;-48
2023/07/05 00:53:59;;;;;;;8.00;4.60;;;17.90;87.70;;;;;;5034693;28;20434;-48
2023/07/05 00:56:29;;;;;;;13.93;5.67;;;17.80;87.60;;;;;;5034527;28;20488;-48
2023/07/05 00:58:58;;;;;;;7.77;5.37;;;17.90;87.80;;;;;;5052176;28;20415;-49
2023/07/05 01:01:25;;;;;;;13.93;4.60;;;18.10;87.90;;;;;;5034470;28;20449;-49
2023/07/05 01:03:57;;;;;;;12.87;6.10;;;17.40;87.10;;;;;;5034791;28;20811;-48
2023/07/05 01:06:26;;;;;;;8.33;5.00;;;17.70;87.40;;;;;;5034757;28;20855;-48
2023/07/05 01:08:54;;;;;;;7.70;5.10;;;17.90;87.70;;;;;;5052135;28;20447;-48
2023/07/05 01:11:30;;;;;;;10.37;5.70;;;17.80;87.60;;;;;;5052170;28;20432;-48
2023/07/05 01:14:06;;;;;;;7.53;4.60;;;17.90;87.70;;;;;;5034427;28;20439;-48
2023/07/05 01:16:51;;;;;;;12.23;5.10;;;17.60;87.30;;;;;;5052159;28;20808;-50
2023/07/05 01:19:38;;;;;;;7.37;4.60;;;17.70;87.50;;;;;;5051866;28;20436;-49
2023/07/05 01:22:08;;;;;;;10.20;5.20;;;17.70;87.60;;;;;;5052336;28;20469;-49
2023/07/05 01:24:54;;;;;;;7.00;5.30;;;18.10;88.00;;;;;;5052024;28;20485;-49
2023/07/05 01:27:44;;;;;;;6.93;4.90;;;17.70;87.70;;;;;;5052160;28;20795;-49
2023/07/05 01:30:35;;;;;;;9.57;5.03;;;17.70;87.70;;;;;;5033664;28;20983;-49
2023/07/05 01:33:07;;;;;;;7.20;5.57;;;18.10;88.10;;;;;;5034155;28;20436;-49
2023/07/05 01:35:39;;;;;;;8.90;5.23;;;17.70;87.70;;;;;;5051840;28;20440;-49
2023/07/05 01:38:09;;;;;;;6.73;5.00;;;17.80;87.80;;;;;;5033704;28;20956;-49
2023/07/05 01:40:58;;;;;;;7.63;4.73;;;17.80;87.70;;;;;;5033891;28;20851;-48
2023/07/05 01:43:27;;;;;;;6.87;5.60;;;17.70;87.50;;;;;;5033789;28;20482;-48
2023/07/05 01:46:10;;;;;;;5.90;4.83;;;18.20;87.90;;;;;;5034201;28;20476;-48
2023/07/05 01:48:47;;;;;;;6.23;4.77;;;17.70;87.20;;;;;;5033586;28;20459;-48
2023/07/05 01:51:18;;;;;;;6.07;4.53;;;17.80;87.20;;;;;;5051753;28;20436;-48
2023/07/05 01:53:54;;;;;;;7.37;4.80;;;17.80;87.00;;;;;;5051774;28;20440;-49
2023/07/05 01:56:26;;;;;;;9.60;4.87;;;18.20;87.30;;;;;;5052152;28;20474;-47
2023/07/05 01:58:57;;;;;;;7.90;4.63;;;17.80;86.70;;;;;;5033780;28;20451;-45
2023/07/05 02:01:26;;;;;;;7.50;4.20;;;17.80;86.60;;;;;;5034250;28;20571;-46
2023/07/05 02:03:56;;;;;;;8.67;5.10;;;17.90;86.60;;;;;;5034459;28;20999;-47
2023/07/05 02:06:23;;;;;;;6.40;4.77;;;18.30;87.00;;;;;;5052701;28;20459;-47
2023/07/05 02:08:51;;;;;;;6.73;4.53;;;17.80;86.30;;;;;;5034488;28;20442;-47
2023/07/05 02:11:18;;;;;;;7.07;4.70;;;18.10;86.50;;;;;;5052268;28;20490;-47
2023/07/05 02:13:44;;;;;;;8.40;4.60;;;17.80;86.10;;;;;;5033753;28;20444;-48
2023/07/05 02:16:11;;;;;;;7.27;4.43;;;17.70;85.80;;;;;;5051796;28;20460;-47
2023/07/05 02:18:38;;;;;;;8.60;5.10;;;17.80;85.70;;;;;;5051114;28;20447;-47
2023/07/05 02:21:10;;;;;;;6.77;4.50;;;17.60;85.40;;;;;;5033544;28;20476;-47
2023/07/05 02:23:36;;;;;;;4.87;4.20;;;17.70;85.40;;;;;;5051240;28;20472;-46
2023/07/05 02:26:06;;;;;;;7.33;4.40;;;18.20;86.00;;;;;;5033413;28;20708;-46
2023/07/05 02:28:34;;;;;;;6.13;4.67;;;17.90;85.70;;;;;;5054990;28;20767;-46
2023/07/05 02:31:04;;;;;;;7.50;4.63;;;17.60;85.40;;;;;;5037489;28;20448;-47
2023/07/05 02:33:31;;;;;;;6.87;4.43;;;18.00;86.00;;;;;;5037615;28;20494;-48
2023/07/05 02:35:58;;;;;;;13.50;6.70;;;17.60;85.70;;;;;;5039110;28;20483;-46
2023/07/05 02:38:26;;;;;;;7.63;4.90;;;17.70;85.90;;;;;;5056550;28;20444;-46
2023/07/05 02:40:53;;;;;;;9.57;4.90;;;18.00;86.40;;;;;;5038077;28;20440;-48
2023/07/05 02:43:20;;;;;;;11.73;5.30;;;17.60;86.10;;;;;;5038530;28;20488;-46
2023/07/05 02:45:46;;;;;;;6.37;5.20;;;17.70;86.50;;;;;;5037086;28;20468;-46
2023/07/05 02:48:13;;;;;;;6.60;4.70;;;18.00;87.10;;;;;;5054722;28;20440;-47
2023/07/05 02:50:39;;;;;;;9.80;5.90;;;17.20;86.30;;;;;;5055017;28;20439;-47
2023/07/05 02:53:06;;;;;;;8.00;4.97;;;17.10;86.40;;;;;;5037142;28;20447;-46
2023/07/05 02:55:34;;;;;;;7.70;5.83;;;17.30;86.70;;;;;;5054788;28;20444;-46
2023/07/05 02:58:01;;;;;;;7.23;5.33;;;17.70;87.30;;;;;;5054953;28;20854;-48
2023/07/05 03:00:29;;;;;;;7.83;5.97;;;17.40;87.10;;;;;;5054853;28;20836;-47
2023/07/05 03:02:56;;;;;;;7.00;5.00;;;17.80;87.70;;;;;;5036873;28;20476;-48
2023/07/05 03:05:23;;;;;;;6.57;5.40;;;17.50;87.50;;;;;;5054601;28;20804;-48
2023/07/05 03:07:49;;;;;;;6.70;5.07;;;17.70;87.70;;;;;;5054592;28;20456;-47
2023/07/05 03:10:16;;;;;;;6.63;4.67;;;17.40;87.50;;;;;;5054283;28;20435;-48
2023/07/05 03:12:45;;;;;;;7.47;4.83;;;17.70;87.90;;;;;;5054564;28;20430;-47
2023/07/05 03:15:12;;;;;;;7.43;5.10;;;17.50;87.60;;;;;;5054567;28;20441;-48
2023/07/05 03:17:39;;;;;;;7.53;4.90;;;17.50;87.60;;;;;;5054461;28;20547;-46
2023/07/05 03:20:07;;;;;;;5.77;5.20;;;17.50;87.70;;;;;;5036150;28;20948;-47
2023/07/05 03:22:34;;;;;;;10.03;5.80;;;17.50;87.60;;;;;;5054352;28;20433;-48
2023/07/05 03:25:01;;;;;;;11.07;5.33;;;17.90;88.00;;;;;;5036268;28;20476;-47
2023/07/05 03:27:28;;;;;;;8.70;5.10;;;17.40;87.30;;;;;;5036329;28;20470;-46
2023/07/05 03:29:57;;;;;;;7.73;4.77;;;17.60;87.50;;;;;;5054293;28;20432;-47
2023/07/05 03:32:24;;;;;;;8.83;5.60;;;17.70;87.50;;;;;;5036052;28;20475;-47
2023/07/05 03:34:51;;;;;;;7.87;5.00;;;17.20;86.70;;;;;;5054016;28;20456;-49
2023/07/05 03:37:18;;;;;;;7.00;5.13;;;17.70;87.10;;;;;;5053929;28;20445;-47
2023/07/05 03:39:44;;;;;;;8.10;5.23;;;17.60;86.80;;;;;;5052396;28;20438;-47
2023/07/05 03:42:11;;;;;;;9.10;5.43;;;17.80;86.90;;;;;;5053993;28;20807;-47
2023/07/05 03:44:37;;;;;;;6.10;4.67;;;17.70;86.60;;;;;;5053822;28;20480;-47
2023/07/05 03:47:06;;;;;;;8.93;5.20;;;17.70;86.30;;;;;;5053911;28;20453;-46
2023/07/05 03:49:32;;;;;;;10.50;6.20;;;17.70;86.10;;;;;;5053472;28;20434;-47
2023/07/05 03:51:59;;;;;;;10.00;5.60;;;18.00;86.20;;;;;;5053863;28;20447;-48
2023/07/05 03:54:28;;;;;;;10.07;5.00;;;17.70;86.40;;;;;;5053945;28;20930;-47
2023/07/05 03:56:54;;;;;;;7.97;4.43;;;18.00;85.60;;;;;;5035720;28;20473;-47
2023/07/05 03:59:21;;;;;;;9.57;5.60;;;18.00;85.50;;;;;;5053500;28;20448;-49
2023/07/05 04:01:47;;;;;;;8.10;5.90;;;18.10;85.50;;;;;;5054842;28;20441;-48
2023/07/05 04:04:15;;;;;;;7.53;5.30;;;18.40;85.70;;;;;;5053548;28;20484;-47
2023/07/05 04:06:42;;;;;;;6.87;5.20;;;18.60;85.70;;;;;;5053570;28;20796;-46
2023/07/05 04:09:08;;;;;;;6.80;5.13;;;18.50;85.40;;;;;;5053062;28;20473;-47
2023/07/05 04:11:36;;;;;;;9.20;5.10;;;18.10;84.70;;;;;;5053461;28;20434;-48
2023/07/05 04:14:03;;;;;;;9.77;5.43;;;18.70;85.10;;;;;;5053599;28;20445;-47
2023/07/05 04:16:30;;;;;;;8.17;5.20;;;18.60;84.70;;;;;;5035248;28;20936;-48
2023/07/05 04:18:57;;;;;;;10.63;5.03;;;18.50;84.10;;;;;;5052941;28;20952;-47
2023/07/05 04:21:27;;;;;;;6.50;4.73;;;18.70;84.00;;;;;;5053559;28;20488;-47
2023/07/05 04:23:54;;;;;;;9.60;4.60;;;18.90;83.90;;;;;;5053051;28;20496;-47
2023/07/05 04:26:22;;;;;;;8.70;5.17;;;18.90;83.40;;;;;;5053119;28;20468;-47
2023/07/05 04:28:49;;;;;;;8.83;5.33;;;18.40;82.60;;;;;;5052875;28;20442;-47
2023/07/05 04:31:19;;;;;;;5.00;4.43;;;18.60;82.60;;;;;;5052917;28;20440;-48
2023/07/05 04:33:45;;;;;;;7.00;4.83;;;18.90;82.80;;;;;;5053144;28;20513;-47
2023/07/05 04:36:12;;;;;;;8.40;4.83;;;18.70;82.50;;;;;;5052879;28;20454;-47
2023/07/05 04:38:40;;;;;;;4.90;4.40;;;18.70;82.30;;;;;;5052676;28;20499;-47
2023/07/05 04:41:07;;;;;;;8.03;5.30;;;18.70;82.10;;;;;;5052969;28;20445;-47
2023/07/05 04:43:33;;;;;;;8.67;5.17;;;19.00;82.20;;;;;;5052842;28;20431;-47
2023/07/05 04:46:01;;;;;;;6.17;4.90;;;19.20;82.40;;;;;;5052681;28;20974;-47
2023/07/05 04:48:29;;;;;;;5.97;5.00;;;19.20;82.00;;;;;;5052398;28;20469;-47
2023/07/05 04:50:57;;;;;;;6.30;4.67;;;18.90;81.40;;;;;;5052616;28;20438;-47
2023/07/05 04:53:26;;;;;;;6.60;4.60;;;18.60;80.70;;;;;;5052555;28;20850;-47
2023/07/05 04:55:55;;;;;;;8.03;5.13;;;19.20;81.20;;;;;;5052649;28;20465;-46
2023/07/05 04:58:23;;;;;;;10.00;5.43;;;19.30;80.80;;;;;;5052266;28;20923;-46
2023/07/05 05:00:50;;;;;;;8.30;4.80;;;19.60;80.60;;;;;;5052600;28;20437;-46
2023/07/05 05:03:18;;;;;;;11.10;5.70;;;19.60;80.00;;;;;;5052587;28;20445;-47
2023/07/05 05:05:46;;;;;;;8.93;5.00;;;19.80;79.80;;;;;;5052395;28;20830;-47
2023/07/05 05:08:13;;;;;;;7.87;5.80;;;19.80;79.30;;;;;;5052026;28;20430;-47
2023/07/05 05:10:40;;;;;;;14.60;5.37;;;19.90;79.20;;;;;;5052287;28;20796;-47
2023/07/05 05:13:08;;;;;;;8.13;4.90;;;19.80;79.20;;;;;;5052273;28;21022;-47
2023/07/05 05:15:37;;;;;;;6.03;4.27;;;19.70;79.00;;;;;;5052140;28;20435;-47
2023/07/05 05:18:03;;;;;;;7.97;5.30;;;19.70;79.20;;;;;;5052210;28;20443;-48
2023/07/05 05:20:31;;;;;;;10.70;5.40;;;20.10;79.80;;;;;;5052115;28;20443;-47
2023/07/05 05:22:58;;;;;;;11.67;5.63;;;19.80;79.50;;;;;;5051859;28;20433;-47
2023/07/05 05:25:25;;;;;;;9.90;5.13;;;19.80;79.40;;;;;;5051754;28;20447;-49
2023/07/05 05:27:52;;;;;;;7.50;4.80;;;20.30;79.80;;;;;;5052160;28;20863;-48
2023/07/05 05:30:20;;;;;;;6.97;5.40;;;20.00;79.20;;;;;;5051674;28;20474;-49
2023/07/05 05:32:47;;;;;;;7.37;5.30;;;20.10;79.00;;;;;;5051820;28;20431;-48
2023/07/05 05:35:15;;;;;;;14.00;5.70;;;20.20;78.80;;;;;;5051563;28;20439;-46
2023/07/05 05:37:41;;;;;;;11.20;5.13;;;20.30;78.50;;;;;;5051859;28;20451;-48
2023/07/05 05:40:09;;;;;;;8.93;4.83;;;20.60;78.60;;;;;;5051226;28;20814;-48
2023/07/05 05:42:36;;;;;;;7.90;4.80;;;20.40;78.20;;;;;;5052040;28;20439;-49
2023/07/05 05:45:03;;;;;;;8.90;5.30;;;20.60;78.70;;;;;;5051674;28;20482;-47
2023/07/05 05:47:31;;;;;;;7.00;5.27;;;20.40;78.00;;;;;;5051450;28;20458;-48
2023/07/05 05:49:58;;;;;;;10.53;7.10;;;20.50;77.80;;;;;;5033516;28;20477;-48
2023/07/05 05:52:25;;;;;;;9.97;5.83;;;20.70;77.70;;;;;;5051403;28;20435;-48
2023/07/05 05:54:51;;;;;;;6.03;5.43;;;20.90;77.40;;;;;;5051520;28;20440;-48
2023/07/05 05:57:18;;;;;;;6.43;5.30;;;21.10;77.00;;;;;;5051520;28;20439;-48
2023/07/05 05:59:44;;;;;;;10.07;5.20;;;21.20;76.90;;;;;;5050735;28;20430;-48
2023/07/05 06:02:11;;;;;;;9.10;5.53;;;21.20;76.80;;;;;;5050784;28;20439;-48
2023/07/05 06:04:39;;;;;;;14.27;6.43;;;21.20;76.60;;;;;;5051472;28;20940;-47
2023/07/05 06:07:05;;;;;;;8.73;5.53;;;20.80;76.20;;;;;;5051026;28;20452;-48
2023/07/05 06:09:38;;;;;;;9.60;5.37;;;21.00;76.80;;;;;;5051033;28;20501;-49
2023/07/05 06:12:05;;;;;;;10.53;6.00;;;21.00;77.10;;;;;;5050907;28;20487;-46
2023/07/05 06:14:32;;;;;;;11.90;6.00;;;21.00;77.30;;;;;;5050836;28;20439;-48
2023/07/05 06:16:59;;;;;;;10.40;7.23;;;20.90;77.40;;;;;;5050533;28;20447;-48
2023/07/05 06:19:25;;;;;;;12.47;6.23;;;20.90;77.80;;;;;;5050618;28;20457;-48
2023/07/05 06:21:53;;;;;;;9.47;6.63;;;20.80;78.70;;;;;;5051175;28;20469;-47
2023/07/05 06:24:20;;;;;;;7.83;5.70;;;20.80;79.50;;;;;;5051363;28;20487;-47
2023/07/05 06:26:46;;;;;;;7.30;5.90;;;20.80;79.70;;;;;;5050965;28;20483;-50
2023/07/05 06:29:13;;;;;;;10.47;6.53;;;20.80;79.60;;;;;;5050804;28;20884;-48
2023/07/05 06:31:39;;;;;;;13.10;5.70;;;20.60;79.20;;;;;;5051208;28;20432;-47
2023/07/05 06:34:06;;;;;;;11.10;6.07;;;20.90;79.50;;;;;;5050511;28;20453;-47
2023/07/05 06:36:33;;;;;;;9.07;6.13;;;21.20;79.50;;;;;;5051039;28;20472;-48
2023/07/05 06:39:01;;;;;;;10.13;6.90;;;21.00;79.10;;;;;;5050149;28;20435;-48
2023/07/05 06:41:27;;;;;;;9.50;6.20;;;21.20;79.40;;;;;;5050587;28;20431;-47
2023/07/05 06:43:54;;;;;;;8.53;6.87;;;20.90;79.10;;;;;;5050689;28;20479;-48
2023/07/05 06:46:20;;;;;;;9.23;6.73;;;20.90;79.10;;;;;;5050928;28;20494;-47
2023/07/05 06:48:47;;;;;;;10.13;6.80;;;21.00;79.00;;;;;;5050412;28;20436;-49
2023/07/05 06:51:14;;;;;;;12.40;6.50;;;21.50;79.50;;;;;;5050511;28;20436;-49
2023/07/05 06:53:40;;;;;;;6.83;6.07;;;21.20;78.60;;;;;;5050772;28;20992;-48
2023/07/05 06:56:09;;;;;;;14.37;8.10;;;21.20;78.30;;;;;;5050281;28;20469;-48
2023/07/05 06:58:37;;;;;;;16.23;8.30;;;21.20;78.10;;;;;;5050639;28;20440;-49
2023/07/05 07:01:04;;;;;;;7.70;6.90;;;21.40;77.90;;;;;;5032784;28;20497;-48
2023/07/05 07:03:31;;;;;;;12.10;8.67;;;21.60;77.70;;;;;;5051469;28;20434;-47
2023/07/05 07:05:59;;;;;;;8.97;6.60;;;21.80;77.50;;;;;;5050927;28;20577;-48
2023/07/05 07:08:29;;;;;;;8.40;7.43;;;22.00;77.10;;;;;;5050423;28;20433;-48
2023/07/05 07:10:56;;;;;;;14.20;8.30;;;22.50;76.80;;;;;;5050861;28;20450;-48
2023/07/05 07:13:25;;;;;;;12.20;8.00;;;22.40;75.80;;;;;;5051794;28;20519;-48
2023/07/05 07:15:59;;;;;;;8.57;7.30;;;22.30;75.40;;;;;;5054323;28;20463;-49
2023/07/05 07:18:26;;;;;;;13.53;8.43;;;22.50;74.90;;;;;;5054177;28;20908;-49
2023/07/05 07:20:55;;;;;;;12.77;8.30;;;22.40;75.00;;;;;;5054048;28;20464;-49
2023/07/05 07:23:22;;;;;;;11.77;9.00;;;22.70;75.20;;;;;;5054643;28;20914;-48
2023/07/05 07:25:57;;;;;;;17.80;9.70;;;22.60;74.70;;;;;;5054315;28;20840;-48
2023/07/05 07:28:25;;;;;;;10.80;9.10;;;22.90;74.30;;;;;;5054184;28;20907;-48
2023/07/05 07:30:52;;;;;;;10.77;8.90;;;23.10;74.30;;;;;;5054908;28;20432;-49
2023/07/05 07:33:19;;;;;;;12.27;9.17;;;23.10;74.80;;;;;;5055223;28;20430;-48
2023/07/05 07:35:47;;;;;;;10.10;8.60;;;23.20;73.40;;;;;;5054743;28;20453;-48
2023/07/05 07:38:14;;;;;;;10.47;8.80;;;23.40;73.30;;;;;;5054779;28;20436;-47
2023/07/05 07:40:40;;;;;;;11.70;9.30;;;23.50;72.70;;;;;;5054453;28;20524;-48
2023/07/05 07:43:08;;;;;;;12.53;10.00;;;23.50;72.30;;;;;;5054702;28;20486;-48
2023/07/05 07:45:36;;;;;;;15.30;10.70;;;23.60;72.00;;;;;;5054033;28;20494;-49
2023/07/05 07:48:03;;;;;;;12.50;10.70;;;23.60;71.60;;;;;;5054059;28;20535;-49
2023/07/05 07:50:29;;;;;;;17.73;13.30;;;23.70;71.70;;;;;;5053722;28;20437;-48
2023/07/05 07:52:56;;;;;;;18.50;10.43;;;23.80;71.60;;;;;;5053747;28;20440;-48
2023/07/05 07:55:22;;;;;;;15.37;11.00;;;23.80;71.40;;;;;;5053504;28;20954;-49
2023/07/05 07:57:49;;;;;;;15.20;10.50;;;23.70;71.20;;;;;;5094999;22;20515;-47
2023/07/05 08:00:17;;;;;;;21.73;11.67;;;23.80;71.20;;;;;;5073290;28;20433;-47
2023/07/05 08:02:45;;;;;;;16.90;10.73;;;23.80;71.10;;;;;;5073854;28;20442;-47
2023/07/05 08:05:16;;;;;;;16.57;12.60;;;23.90;71.00;;;;;;5073930;28;20515;-47
2023/07/05 08:07:43;;;;;;;12.13;10.77;;;24.00;70.90;;;;;;5073995;28;20463;-47
2023/07/05 08:10:10;;;;;;;12.53;11.23;;;24.10;71.00;;;;;;5073460;28;20441;-47
2023/07/05 08:12:36;;;;;;;13.97;12.00;;;24.10;70.70;;;;;;5073614;28;20443;-48
2023/07/05 08:15:04;;;;;;;16.07;11.97;;;24.20;70.60;;;;;;5073806;28;20768;-47
2023/07/05 08:17:30;;;;;;;25.03;12.73;;;24.30;70.20;;;;;;5073619;28;21000;-49
2023/07/05 08:19:58;;;;;;;17.00;11.80;;;24.30;70.00;;;;;;5073311;28;20435;-49
2023/07/05 08:22:25;;;;;;;17.80;12.60;;;24.30;69.90;;;;;;5072961;28;20433;-48
2023/07/05 08:24:52;;;;;;;14.20;12.70;;;24.50;70.20;;;;;;5072566;28;20490;-47
2023/07/05 08:27:19;;;;;;;24.70;14.30;;;24.40;69.50;;;;;;5073214;28;20451;-47
2023/07/05 08:29:45;;;;;;;17.97;13.40;;;24.30;69.30;;;;;;5072858;28;20517;-51
2023/07/05 08:32:12;;;;;;;17.13;13.07;;;24.30;69.60;;;;;;5073159;28;20433;-47
2023/07/05 08:34:38;;;;;;;23.33;14.40;;;24.30;69.60;;;;;;5073036;28;20443;-48
2023/07/05 08:37:06;;;;;;;20.47;14.27;;;24.30;69.70;;;;;;5054726;28;20500;-47
2023/07/05 08:39:33;;;;;;;17.93;13.20;;;24.10;69.60;;;;;;5072637;28;20445;-47
2023/07/05 08:42:21;;;;;;;17.00;13.60;;;24.30;69.90;;;;;;5072964;28;20448;-47
2023/07/05 08:45:01;;;;;;;19.00;14.67;;;24.30;70.80;;;;;;5073104;28;20433;-47
2023/07/05 08:47:32;;;;;;;20.00;14.90;;;24.20;71.00;;;;;;5073032;28;20452;-47
2023/07/05 08:50:06;;;;;;;17.37;13.90;;;24.10;71.40;;;;;;5054702;28;21040;-47
2023/07/05 08:52:38;;;;;;;24.90;15.07;;;24.00;71.60;;;;;;5072748;28;20428;-46
2023/07/05 08:55:08;;;;;;;19.10;13.57;;;23.90;71.80;;;;;;5073173;28;20543;-47
2023/07/05 08:57:40;;;;;;;16.37;13.00;;;23.90;72.10;;;;;;5072878;28;20569;-47
2023/07/05 09:00:13;;;;;;;16.33;13.33;;;24.00;72.20;;;;;;5072573;28;20441;-48
2023/07/05 09:02:40;;;;;;;17.50;13.53;;;23.70;71.80;;;;;;5073157;28;20444;-47
2023/07/05 09:05:15;;;;;;;17.50;13.10;;;24.20;72.40;;;;;;5072716;28;20503;-47
2023/07/05 09:07:50;;;;;;;16.40;13.03;;;24.10;72.60;;;;;;5072754;28;20471;-48
2023/07/05 09:10:23;;;;;;;17.70;13.57;;;24.30;72.80;;;;;;5072854;28;20525;-47
2023/07/05 09:13:03;;;;;;;20.30;13.03;;;24.40;72.80;;;;;;5072880;28;20447;-48
2023/07/05 09:15:35;;;;;;;15.53;12.67;;;24.50;72.50;;;;;;5072504;28;20517;-47
2023/07/05 09:18:09;;;;;;;17.17;12.90;;;24.60;72.30;;;;;;5072414;28;20477;-47
2023/07/05 09:20:51;;;;;;;14.93;11.23;;;24.70;72.10;;;;;;5054501;28;20523;-47
2023/07/05 09:23:23;;;;;;;13.33;11.67;;;24.90;71.70;;;;;;5072443;28;20433;-47
2023/07/05 09:25:55;;;;;;;14.20;11.20;;;24.90;70.80;;;;;;5072151;28;20556;-47
2023/07/05 09:28:25;;;;;;;14.13;10.10;;;24.90;70.30;;;;;;5071898;28;20432;-47
2023/07/05 09:30:53;;;;;;;12.87;11.37;;;24.80;70.20;;;;;;5072342;28;20436;-46
2023/07/05 09:33:27;;;;;;;15.07;9.37;;;24.90;70.20;;;;;;5071991;28;20724;-47
2023/07/05 09:35:53;;;;;;;12.27;10.50;;;24.90;70.10;;;;;;5071456;28;20442;-48
2023/07/05 09:38:28;;;;;;;13.60;11.00;;;24.80;69.80;;;;;;5071012;28;20904;-48
2023/07/05 09:41:01;;;;;;;12.93;10.77;;;24.90;70.10;;;;;;5071919;28;20432;-48
2023/07/05 09:43:30;;;;;;;12.07;10.77;;;24.90;70.20;;;;;;5072265;28;20552;-46
2023/07/05 09:45:57;;;;;;;11.50;10.10;;;24.80;70.20;;;;;;5071549;28;20546;-48
2023/07/05 09:48:23;;;;;;;24.97;10.53;;;24.90;70.40;;;;;;5071482;28;20434;-48
2023/07/05 09:50:52;;;;;;;11.97;9.30;;;24.90;70.50;;;;;;5071984;28;20491;-48
2023/07/05 09:53:33;;;;;;;12.80;10.30;;;24.80;70.20;;;;;;5053733;28;20503;-47
2023/07/05 09:56:05;;;;;;;11.80;9.67;;;24.90;70.40;;;;;;5071315;28;20918;-47
2023/07/05 09:58:33;;;;;;;11.33;9.63;;;24.80;70.50;;;;;;5071251;28;20490;-47
2023/07/05 10:01:02;;;;;;;18.13;9.43;;;24.80;70.60;;;;;;5071884;28;20441;-50
2023/07/05 10:03:35;;;;;;;16.00;9.63;;;24.80;70.90;;;;;;5071784;28;20433;-47
2023/07/05 10:06:07;;;;;;;10.33;8.10;;;24.70;71.00;;;;;;5071667;28;20485;-48
2023/07/05 10:08:43;;;;;;;10.37;8.60;;;24.70;71.10;;;;;;5071421;28;20426;-48
2023/07/05 10:11:21;;;;;;;17.83;9.70;;;24.90;71.30;;;;;;5071815;28;20465;-48
2023/07/05 10:14:02;;;;;;;16.50;9.20;;;25.10;71.30;;;;;;5072675;28;20413;-48
2023/07/05 10:16:45;;;;;;;9.10;8.17;;;25.30;71.10;;;;;;5071977;28;20447;-47
2023/07/05 10:19:20;;;;;;;9.67;8.73;;;25.20;71.20;;;;;;5071472;28;20438;-50
2023/07/05 10:21:48;;;;;;;7.73;6.93;;;25.20;71.50;;;;;;5072037;28;20473;-47
2023/07/05 10:24:18;;;;;;;8.10;7.30;;;25.30;71.70;;;;;;5072039;28;20426;-47
2023/07/05 10:26:46;;;;;;;10.57;7.87;;;25.30;71.60;;;;;;5071616;28;20484;-48
2023/07/05 10:29:12;;;;;;;11.20;7.83;;;25.40;71.90;;;;;;5071089;28;20438;-48
2023/07/05 10:31:52;;;;;;;8.43;6.60;;;25.40;72.10;;;;;;5052972;28;20471;-47
2023/07/05 10:34:23;;;;;;;12.23;7.47;;;25.50;72.30;;;;;;5071359;28;20433;-48
2023/07/05 10:36:50;;;;;;;10.57;7.83;;;25.50;72.30;;;;;;5070923;28;20481;-46
2023/07/05 10:39:22;;;;;;;7.43;6.10;;;25.80;72.30;;;;;;5070601;28;20430;-47
2023/07/05 10:41:51;;;;;;;7.40;6.60;;;25.90;71.90;;;;;;5071245;28;20563;-49
2023/07/05 10:44:25;;;;;;;8.80;6.53;;;26.00;71.90;;;;;;5071347;28;20448;-47
2023/07/05 10:46:52;;;;;;;6.20;5.57;;;26.10;71.70;;;;;;5071212;28;20860;-48
2023/07/05 10:49:20;;;;;;;12.73;7.03;;;26.10;71.80;;;;;;5073939;28;20443;-47
2023/07/05 10:51:50;;;;;;;7.47;5.70;;;26.20;71.80;;;;;;5075001;28;20441;-49
2023/07/05 10:54:28;;;;;;;9.20;6.27;;;26.30;72.10;;;;;;5074949;28;20433;-48
2023/07/05 10:56:55;;;;;;;8.70;6.30;;;26.40;72.00;;;;;;5074972;28;20822;-47
2023/07/05 10:59:29;;;;;;;11.63;6.90;;;26.20;71.80;;;;;;5074702;28;20847;-47
2023/07/05 11:01:58;;;;;;;9.13;6.53;;;26.60;71.80;;;;;;5074681;28;20438;-47
2023/07/05 11:04:29;;;;;;;7.13;6.20;;;26.60;71.80;;;;;;5074789;28;20442;-47
2023/07/05 11:07:01;;;;;;;7.30;6.37;;;26.50;71.50;;;;;;5074891;28;20485;-46
2023/07/05 11:09:34;;;;;;;10.00;6.67;;;26.40;71.80;;;;;;5056454;28;20961;-47
2023/07/05 11:12:05;;;;;;;8.23;5.40;;;26.30;72.10;;;;;;5074631;28;20803;-48
2023/07/05 11:14:33;;;;;;;8.13;5.10;;;26.30;72.50;;;;;;5074794;28;20430;-46
2023/07/05 11:17:00;;;;;;;8.10;5.40;;;26.30;73.20;;;;;;5075016;28;20850;-48
2023/07/05 11:19:29;;;;;;;7.03;5.20;;;26.20;74.50;;;;;;5075019;28;20432;-46
2023/07/05 11:21:56;;;;;;;5.83;5.10;;;26.00;77.60;;;;;;5074358;28;20901;-48
2023/07/05 11:24:43;;;;;;;6.00;4.20;;;25.90;79.60;;;;;;5074620;28;20434;-48
2023/07/05 11:27:43;;;;;;;8.50;4.07;;;26.00;80.10;;;;;;5062431;28;20485;-48
2023/07/05 11:30:38;;;;;;;6.77;4.53;;;26.20;79.10;;;;;;5075185;28;20433;-48
2023/07/05 11:33:17;;;;;;;7.73;3.83;;;26.20;77.40;;;;;;5074759;28;20448;-48
2023/07/05 11:35:46;;;;;;;7.83;4.60;;;26.40;77.10;;;;;;5074198;28;20429;-49
2023/07/05 11:39:05;;;;;;;4.63;3.50;;;26.30;76.40;;;;;;5073856;28;20444;-48
2023/07/05 11:41:37;;;;;;;7.60;4.40;;;26.50;76.20;;;;;;5074390;28;20425;-48
2023/07/05 11:44:06;;;;;;;5.97;4.10;;;26.50;76.10;;;;;;5074172;28;20472;-47
2023/07/05 11:46:48;;;;;;;3.70;3.17;;;26.60;75.80;;;;;;5074045;28;20482;-47
2023/07/05 11:49:37;;;;;;;8.70;3.77;;;26.60;75.00;;;;;;5074385;28;20498;-47
2023/07/05 11:52:21;;;;;;;6.47;3.90;;;26.60;75.30;;;;;;5074409;28;20440;-47
2023/07/05 11:54:54;;;;;;;5.47;4.03;;;26.70;75.50;;;;;;5072689;28;20452;-48
2023/07/05 11:57:22;;;;;;;8.33;3.73;;;26.80;75.30;;;;;;5074150;28;20530;-47
2023/07/05 12:00:00;;;;;;;4.20;3.60;;;26.90;75.10;;;;;;5072835;28;20474;-47
2023/07/05 12:02:35;;;;;;;5.20;3.37;;;27.00;74.60;;;;;;5074107;28;20425;-48
2023/07/05 12:05:05;;;;;;;6.70;3.40;;;27.00;74.20;;;;;;5074289;28;20430;-48
2023/07/05 12:07:32;;;;;;;9.57;3.80;;;27.00;74.20;;;;;;5074651;28;20479;-48
2023/07/05 12:10:00;;;;;;;4.37;3.27;;;26.90;73.90;;;;;;5073811;28;20934;-48
2023/07/05 12:12:28;;;;;;;5.63;3.13;;;26.90;73.80;;;;;;5074307;28;20445;-48
2023/07/05 12:14:54;;;;;;;5.13;3.60;;;27.00;73.80;;;;;;5073823;28;20444;-49
2023/07/05 12:17:26;;;;;;;5.33;3.23;;;26.90;73.70;;;;;;5074449;28;20973;-47
2023/07/05 12:19:52;;;;;;;6.20;3.70;;;27.10;74.10;;;;;;5073545;28;20454;-49
2023/07/05 12:22:25;;;;;;;4.10;2.90;;;27.00;73.50;;;;;;5073957;28;20437;-47
2023/07/05 12:24:54;;;;;;;6.00;3.60;;;27.20;72.70;;;;;;5073904;28;20427;-48
2023/07/05 12:27:24;;;;;;;9.47;3.53;;;27.30;72.50;;;;;;5073477;28;20511;-48
2023/07/05 12:29:54;;;;;;;6.97;3.10;;;27.40;72.20;;;;;;5073338;28;20426;-48
2023/07/05 12:32:24;;;;;;;5.27;3.10;;;27.30;71.90;;;;;;5073552;28;20434;-47
2023/07/05 12:35:06;;;;;;;7.13;3.07;;;27.40;71.40;;;;;;5072909;28;20472;-46
2023/07/05 12:37:33;;;;;;;5.10;2.70;;;27.40;70.30;;;;;;5073401;28;20488;-47
2023/07/05 12:40:19;;;;;;;4.40;2.67;;;27.40;70.40;;;;;;5072951;28;20503;-48
2023/07/05 12:42:50;;;;;;;5.80;2.70;;;27.40;70.40;;;;;;5073094;28;20447;-47
2023/07/05 12:45:24;;;;;;;5.40;2.50;;;27.30;70.00;;;;;;5072934;28;20453;-48
2023/07/05 12:47:51;;;;;;;9.23;2.80;;;27.40;69.90;;;;;;5072956;28;20499;-47
2023/07/05 12:50:22;;;;;;;3.23;2.53;;;27.20;70.00;;;;;;5072451;28;20430;-49
2023/07/05 12:53:04;;;;;;;6.07;2.93;;;27.20;70.10;;;;;;5072995;28;20438;-48
2023/07/05 12:55:33;;;;;;;4.70;2.60;;;27.30;69.90;;;;;;5072648;28;20434;-47